sensor_id;sensor_type;location;lat;lon;timestamp;P1;durP1;ratioP1;P2;durP2;ratioP2
20621;SDS011;10470;42.670;23.354;2023-03-01T00:00:39;3.80;;;3.40;;
20621;SDS011;10470;42.670;23.354;2023-03-01T00:03:05;4.57;;;3.27;;
20621;SDS011;10470;42.670;23.354;2023-03-01T00:05:31;4.20;;;3.80;;
20621;SDS011;10470;42.670;23.354;2023-03-01T00:07:57;5.20;;;4.00;;
20621;SDS011;10470;42.670;23.354;2023-03-01T00:10:23;5.33;;;3.80;;
20621;SDS011;10470;42.670;23.354;2023-03-01T00:12:48;4.77;;;3.90;;
20621;SDS011;10470;42.670;23.354;2023-03-01T00:15:14;4.23;;;3.83;;
20621;SDS011;10470;42.670;23.354;2023-03-01T00:17:39;3.73;;;3.23;;
20621;SDS011;10470;42.670;23.354;2023-03-01T00:20:05;5.17;;;3.50;;
20621;SDS011;10470;42.670;23.354;2023-03-01T00:22:35;4.77;;;3.60;;
20621;SDS011;10470;42.670;23.354;2023-03-01T00:25:01;4.00;;;3.50;;
20621;SDS011;10470;42.670;23.354;2023-03-01T00:27:27;4.37;;;3.40;;
20621;SDS011;10470;42.670;23.354;2023-03-01T00:29:52;3.70;;;3.40;;
20621;SDS011;10470;42.670;23.354;2023-03-01T00:32:18;4.17;;;3.77;;
20621;SDS011;10470;42.670;23.354;2023-03-01T00:34:43;5.03;;;3.63;;
20621;SDS011;10470;42.670;23.354;2023-03-01T00:37:19;4.40;;;3.77;;
20621;SDS011;10470;42.670;23.354;2023-03-01T00:39:47;3.83;;;3.30;;
20621;SDS011;10470;42.670;23.354;2023-03-01T00:42:13;4.30;;;3.30;;
20621;SDS011;10470;42.670;23.354;2023-03-01T00:44:39;3.27;;;2.83;;
20621;SDS011;10470;42.670;23.354;2023-03-01T00:47:04;4.03;;;3.07;;
20621;SDS011;10470;42.670;23.354;2023-03-01T00:49:30;3.30;;;2.97;;
20621;SDS011;10470;42.670;23.354;2023-03-01T00:51:55;3.47;;;3.00;;
20621;SDS011;10470;42.670;23.354;2023-03-01T00:54:21;4.03;;;3.10;;
20621;SDS011;10470;42.670;23.354;2023-03-01T00:56:46;4.37;;;3.53;;
20621;SDS011;10470;42.670;23.354;2023-03-01T00:59:11;3.10;;;2.80;;
20621;SDS011;10470;42.670;23.354;2023-03-01T01:01:37;3.00;;;2.70;;
20621;SDS011;10470;42.670;23.354;2023-03-01T01:04:04;3.30;;;3.00;;
20621;SDS011;10470;42.670;23.354;2023-03-01T01:08:57;3.27;;;2.97;;
20621;SDS011;10470;42.670;23.354;2023-03-01T01:11:25;3.43;;;3.13;;
20621;SDS011;10470;42.670;23.354;2023-03-01T01:13:52;3.03;;;2.77;;
20621;SDS011;10470;42.670;23.354;2023-03-01T01:16:19;4.07;;;3.23;;
20621;SDS011;10470;42.670;23.354;2023-03-01T01:18:46;3.67;;;2.77;;
20621;SDS011;10470;42.670;23.354;2023-03-01T01:21:13;2.90;;;2.60;;
20621;SDS011;10470;42.670;23.354;2023-03-01T01:23:41;2.90;;;2.60;;
20621;SDS011;10470;42.670;23.354;2023-03-01T01:26:08;2.60;;;2.40;;
20621;SDS011;10470;42.670;23.354;2023-03-01T01:28:38;2.63;;;2.43;;
20621;SDS011;10470;42.670;23.354;2023-03-01T01:31:04;3.13;;;2.43;;
20621;SDS011;10470;42.670;23.354;2023-03-01T01:33:30;2.60;;;2.40;;
20621;SDS011;10470;42.670;23.354;2023-03-01T01:35:55;2.43;;;2.23;;
20621;SDS011;10470;42.670;23.354;2023-03-01T01:38:21;2.63;;;2.40;;
20621;SDS011;10470;42.670;23.354;2023-03-01T01:40:47;2.70;;;2.30;;
20621;SDS011;10470;42.670;23.354;2023-03-01T01:48:58;2.70;;;2.50;;
20621;SDS011;10470;42.670;23.354;2023-03-01T01:51:34;2.57;;;2.37;;
20621;SDS011;10470;42.670;23.354;2023-03-01T01:54:06;2.83;;;2.63;;
20621;SDS011;10470;42.670;23.354;2023-03-01T01:56:37;2.37;;;2.17;;
20621;SDS011;10470;42.670;23.354;2023-03-01T01:59:06;2.83;;;2.57;;
20621;SDS011;10470;42.670;23.354;2023-03-01T02:01:31;3.10;;;2.17;;
20621;SDS011;10470;42.670;23.354;2023-03-01T02:03:57;2.53;;;2.33;;
20621;SDS011;10470;42.670;23.354;2023-03-01T02:06:27;2.33;;;2.20;;
20621;SDS011;10470;42.670;23.354;2023-03-01T02:09:05;2.40;;;2.20;;
20621;SDS011;10470;42.670;23.354;2023-03-01T02:11:36;2.53;;;2.30;;
20621;SDS011;10470;42.670;23.354;2023-03-01T02:14:02;2.77;;;2.40;;
20621;SDS011;10470;42.670;23.354;2023-03-01T02:16:28;2.50;;;2.37;;
20621;SDS011;10470;42.670;23.354;2023-03-01T02:18:56;2.80;;;2.60;;
20621;SDS011;10470;42.670;23.354;2023-03-01T02:27:05;2.40;;;2.30;;
20621;SDS011;10470;42.670;23.354;2023-03-01T02:29:31;2.70;;;2.50;;
20621;SDS011;10470;42.670;23.354;2023-03-01T02:31:57;2.90;;;2.70;;
20621;SDS011;10470;42.670;23.354;2023-03-01T02:34:25;2.80;;;2.60;;
20621;SDS011;10470;42.670;23.354;2023-03-01T02:36:58;2.60;;;2.40;;
20621;SDS011;10470;42.670;23.354;2023-03-01T02:39:47;2.60;;;2.40;;
20621;SDS011;10470;42.670;23.354;2023-03-01T02:42:16;4.10;;;2.70;;
20621;SDS011;10470;42.670;23.354;2023-03-01T02:44:48;2.80;;;2.60;;
20621;SDS011;10470;42.670;23.354;2023-03-01T02:47:15;2.87;;;2.67;;
20621;SDS011;10470;42.670;23.354;2023-03-01T02:49:40;2.50;;;2.30;;
20621;SDS011;10470;42.670;23.354;2023-03-01T02:57:11;3.00;;;2.70;;
20621;SDS011;10470;42.670;23.354;2023-03-01T02:59:37;2.80;;;2.60;;
20621;SDS011;10470;42.670;23.354;2023-03-01T03:02:22;3.50;;;3.20;;
20621;SDS011;10470;42.670;23.354;2023-03-01T03:05:12;3.23;;;2.93;;
20621;SDS011;10470;42.670;23.354;2023-03-01T03:07:45;2.87;;;2.57;;
20621;SDS011;10470;42.670;23.354;2023-03-01T03:10:14;2.97;;;2.77;;
20621;SDS011;10470;42.670;23.354;2023-03-01T03:12:47;3.23;;;2.93;;
20621;SDS011;10470;42.670;23.354;2023-03-01T03:15:22;3.10;;;2.90;;
20621;SDS011;10470;42.670;23.354;2023-03-01T03:17:48;3.33;;;3.03;;
20621;SDS011;10470;42.670;23.354;2023-03-01T03:20:15;3.43;;;3.13;;
20621;SDS011;10470;42.670;23.354;2023-03-01T03:22:44;3.70;;;3.40;;
20621;SDS011;10470;42.670;23.354;2023-03-01T03:25:11;3.43;;;3.13;;
20621;SDS011;10470;42.670;23.354;2023-03-01T03:27:38;2.97;;;2.63;;
20621;SDS011;10470;42.670;23.354;2023-03-01T03:30:09;2.90;;;2.70;;
20621;SDS011;10470;42.670;23.354;2023-03-01T03:32:40;3.20;;;2.90;;
20621;SDS011;10470;42.670;23.354;2023-03-01T03:35:07;3.20;;;2.90;;
20621;SDS011;10470;42.670;23.354;2023-03-01T03:37:38;3.87;;;3.47;;
20621;SDS011;10470;42.670;23.354;2023-03-01T03:40:23;3.20;;;2.87;;
20621;SDS011;10470;42.670;23.354;2023-03-01T03:42:49;4.23;;;3.47;;
20621;SDS011;10470;42.670;23.354;2023-03-01T03:45:15;3.87;;;3.30;;
20621;SDS011;10470;42.670;23.354;2023-03-01T03:47:41;4.23;;;3.40;;
20621;SDS011;10470;42.670;23.354;2023-03-01T03:50:07;4.73;;;3.70;;
20621;SDS011;10470;42.670;23.354;2023-03-01T03:52:34;4.17;;;3.60;;
20621;SDS011;10470;42.670;23.354;2023-03-01T03:54:59;4.20;;;3.60;;
20621;SDS011;10470;42.670;23.354;2023-03-01T03:57:25;6.73;;;3.77;;
20621;SDS011;10470;42.670;23.354;2023-03-01T03:59:50;4.23;;;3.80;;
20621;SDS011;10470;42.670;23.354;2023-03-01T04:02:15;3.80;;;3.40;;
20621;SDS011;10470;42.670;23.354;2023-03-01T04:04:47;3.47;;;3.17;;
20621;SDS011;10470;42.670;23.354;2023-03-01T04:07:15;3.90;;;3.37;;
20621;SDS011;10470;42.670;23.354;2023-03-01T04:09:41;3.47;;;3.13;;
20621;SDS011;10470;42.670;23.354;2023-03-01T04:12:07;3.30;;;3.00;;
20621;SDS011;10470;42.670;23.354;2023-03-01T04:14:33;3.37;;;3.07;;
20621;SDS011;10470;42.670;23.354;2023-03-01T04:16:59;3.10;;;2.73;;
20621;SDS011;10470;42.670;23.354;2023-03-01T04:19:24;3.33;;;3.00;;
20621;SDS011;10470;42.670;23.354;2023-03-01T04:21:52;3.40;;;3.10;;
20621;SDS011;10470;42.670;23.354;2023-03-01T04:24:18;3.00;;;2.70;;
20621;SDS011;10470;42.670;23.354;2023-03-01T04:26:44;4.00;;;3.00;;
20621;SDS011;10470;42.670;23.354;2023-03-01T04:29:09;2.90;;;2.70;;
20621;SDS011;10470;42.670;23.354;2023-03-01T04:31:35;3.30;;;3.00;;
20621;SDS011;10470;42.670;23.354;2023-03-01T04:34:00;3.00;;;2.70;;
20621;SDS011;10470;42.670;23.354;2023-03-01T04:36:27;3.30;;;3.00;;
20621;SDS011;10470;42.670;23.354;2023-03-01T04:38:54;3.13;;;2.93;;
20621;SDS011;10470;42.670;23.354;2023-03-01T04:41:21;3.53;;;3.10;;
20621;SDS011;10470;42.670;23.354;2023-03-01T04:43:48;4.30;;;2.93;;
20621;SDS011;10470;42.670;23.354;2023-03-01T04:46:16;3.67;;;2.97;;
20621;SDS011;10470;42.670;23.354;2023-03-01T04:48:43;4.40;;;3.30;;
20621;SDS011;10470;42.670;23.354;2023-03-01T04:51:09;3.47;;;3.03;;
20621;SDS011;10470;42.670;23.354;2023-03-01T04:53:38;3.37;;;3.03;;
20621;SDS011;10470;42.670;23.354;2023-03-01T04:56:05;4.37;;;3.97;;
20621;SDS011;10470;42.670;23.354;2023-03-01T04:58:31;4.17;;;3.37;;
20621;SDS011;10470;42.670;23.354;2023-03-01T05:00:57;4.73;;;3.17;;
20621;SDS011;10470;42.670;23.354;2023-03-01T05:03:22;4.10;;;3.20;;
20621;SDS011;10470;42.670;23.354;2023-03-01T05:05:48;3.40;;;3.10;;
20621;SDS011;10470;42.670;23.354;2023-03-01T05:08:15;2.80;;;2.47;;
20621;SDS011;10470;42.670;23.354;2023-03-01T05:10:49;3.07;;;2.60;;
20621;SDS011;10470;42.670;23.354;2023-03-01T05:13:16;3.00;;;2.70;;
20621;SDS011;10470;42.670;23.354;2023-03-01T05:15:53;3.77;;;2.80;;
20621;SDS011;10470;42.670;23.354;2023-03-01T05:18:20;3.17;;;2.87;;
20621;SDS011;10470;42.670;23.354;2023-03-01T05:20:45;4.33;;;2.90;;
20621;SDS011;10470;42.670;23.354;2023-03-01T05:23:12;4.23;;;2.90;;
20621;SDS011;10470;42.670;23.354;2023-03-01T05:25:38;3.03;;;2.73;;
20621;SDS011;10470;42.670;23.354;2023-03-01T05:28:05;3.93;;;2.70;;
20621;SDS011;10470;42.670;23.354;2023-03-01T05:30:34;3.70;;;2.73;;
20621;SDS011;10470;42.670;23.354;2023-03-01T05:33:00;3.00;;;2.70;;
20621;SDS011;10470;42.670;23.354;2023-03-01T05:35:26;3.40;;;2.60;;
20621;SDS011;10470;42.670;23.354;2023-03-01T05:37:52;3.00;;;2.70;;
20621;SDS011;10470;42.670;23.354;2023-03-01T05:40:19;2.40;;;2.20;;
20621;SDS011;10470;42.670;23.354;2023-03-01T05:42:47;2.87;;;2.60;;
20621;SDS011;10470;42.670;23.354;2023-03-01T05:45:14;2.77;;;2.50;;
20621;SDS011;10470;42.670;23.354;2023-03-01T05:47:41;5.57;;;3.03;;
20621;SDS011;10470;42.670;23.354;2023-03-01T05:50:18;3.17;;;2.60;;
20621;SDS011;10470;42.670;23.354;2023-03-01T05:52:46;5.20;;;4.60;;
20621;SDS011;10470;42.670;23.354;2023-03-01T05:55:15;4.87;;;3.53;;
20621;SDS011;10470;42.670;23.354;2023-03-01T05:57:41;4.30;;;3.83;;
20621;SDS011;10470;42.670;23.354;2023-03-01T06:00:07;4.27;;;3.83;;
20621;SDS011;10470;42.670;23.354;2023-03-01T06:02:34;6.83;;;5.43;;
20621;SDS011;10470;42.670;23.354;2023-03-01T06:04:59;5.90;;;4.40;;
20621;SDS011;10470;42.670;23.354;2023-03-01T06:07:25;6.00;;;5.00;;
20621;SDS011;10470;42.670;23.354;2023-03-01T06:09:51;6.47;;;4.57;;
20621;SDS011;10470;42.670;23.354;2023-03-01T06:12:16;7.77;;;5.20;;
20621;SDS011;10470;42.670;23.354;2023-03-01T06:14:42;5.90;;;4.57;;
20621;SDS011;10470;42.670;23.354;2023-03-01T06:17:08;7.87;;;6.00;;
20621;SDS011;10470;42.670;23.354;2023-03-01T06:19:33;12.10;;;6.87;;
20621;SDS011;10470;42.670;23.354;2023-03-01T06:21:58;6.70;;;4.80;;
20621;SDS011;10470;42.670;23.354;2023-03-01T06:24:24;6.77;;;4.70;;
20621;SDS011;10470;42.670;23.354;2023-03-01T06:26:49;4.77;;;3.93;;
20621;SDS011;10470;42.670;23.354;2023-03-01T06:29:15;5.37;;;3.83;;
20621;SDS011;10470;42.670;23.354;2023-03-01T06:31:40;5.30;;;4.23;;
20621;SDS011;10470;42.670;23.354;2023-03-01T06:34:06;5.13;;;4.13;;
20621;SDS011;10470;42.670;23.354;2023-03-01T06:36:31;6.77;;;4.33;;
20621;SDS011;10470;42.670;23.354;2023-03-01T06:38:57;4.73;;;4.03;;
20621;SDS011;10470;42.670;23.354;2023-03-01T06:41:22;5.50;;;4.40;;
20621;SDS011;10470;42.670;23.354;2023-03-01T06:43:47;5.97;;;4.10;;
20621;SDS011;10470;42.670;23.354;2023-03-01T06:46:13;8.10;;;4.07;;
20621;SDS011;10470;42.670;23.354;2023-03-01T06:48:38;6.20;;;3.67;;
20621;SDS011;10470;42.670;23.354;2023-03-01T06:51:04;4.53;;;3.63;;
20621;SDS011;10470;42.670;23.354;2023-03-01T06:53:29;4.63;;;3.60;;
20621;SDS011;10470;42.670;23.354;2023-03-01T06:55:55;5.50;;;3.73;;
20621;SDS011;10470;42.670;23.354;2023-03-01T06:58:22;5.83;;;3.43;;
20621;SDS011;10470;42.670;23.354;2023-03-01T07:00:48;7.17;;;3.90;;
20621;SDS011;10470;42.670;23.354;2023-03-01T07:03:13;5.00;;;4.17;;
20621;SDS011;10470;42.670;23.354;2023-03-01T07:05:39;4.20;;;3.63;;
20621;SDS011;10470;42.670;23.354;2023-03-01T07:08:04;5.47;;;4.47;;
20621;SDS011;10470;42.670;23.354;2023-03-01T07:10:30;5.10;;;3.63;;
20621;SDS011;10470;42.670;23.354;2023-03-01T07:12:56;4.07;;;3.50;;
20621;SDS011;10470;42.670;23.354;2023-03-01T07:15:22;3.70;;;3.10;;
20621;SDS011;10470;42.670;23.354;2023-03-01T07:17:48;4.70;;;3.50;;
20621;SDS011;10470;42.670;23.354;2023-03-01T07:20:15;4.10;;;3.40;;
20621;SDS011;10470;42.670;23.354;2023-03-01T07:22:42;4.63;;;3.80;;
20621;SDS011;10470;42.670;23.354;2023-03-01T07:25:09;8.27;;;4.73;;
20621;SDS011;10470;42.670;23.354;2023-03-01T07:27:35;5.23;;;4.53;;
20621;SDS011;10470;42.670;23.354;2023-03-01T07:30:01;6.13;;;4.20;;
20621;SDS011;10470;42.670;23.354;2023-03-01T07:32:27;5.33;;;4.17;;
20621;SDS011;10470;42.670;23.354;2023-03-01T07:34:53;5.70;;;4.50;;
20621;SDS011;10470;42.670;23.354;2023-03-01T07:37:18;7.60;;;4.70;;
20621;SDS011;10470;42.670;23.354;2023-03-01T07:39:45;6.10;;;4.20;;
20621;SDS011;10470;42.670;23.354;2023-03-01T07:42:11;6.13;;;4.07;;
20621;SDS011;10470;42.670;23.354;2023-03-01T07:44:36;8.33;;;4.13;;
20621;SDS011;10470;42.670;23.354;2023-03-01T07:47:02;3.67;;;3.20;;
20621;SDS011;10470;42.670;23.354;2023-03-01T07:49:28;5.20;;;3.10;;
20621;SDS011;10470;42.670;23.354;2023-03-01T07:51:54;10.07;;;6.90;;
20621;SDS011;10470;42.670;23.354;2023-03-01T07:54:20;4.87;;;2.70;;
20621;SDS011;10470;42.670;23.354;2023-03-01T07:56:45;3.87;;;2.10;;
20621;SDS011;10470;42.670;23.354;2023-03-01T07:59:11;4.20;;;2.50;;
20621;SDS011;10470;42.670;23.354;2023-03-01T08:01:36;3.63;;;2.47;;
20621;SDS011;10470;42.670;23.354;2023-03-01T08:04:01;6.27;;;2.47;;
20621;SDS011;10470;42.670;23.354;2023-03-01T08:06:27;3.67;;;2.60;;
20621;SDS011;10470;42.670;23.354;2023-03-01T08:08:53;4.93;;;2.90;;
20621;SDS011;10470;42.670;23.354;2023-03-01T08:11:20;4.57;;;2.93;;
20621;SDS011;10470;42.670;23.354;2023-03-01T08:13:47;4.03;;;2.23;;
20621;SDS011;10470;42.670;23.354;2023-03-01T08:16:13;2.53;;;2.10;;
20621;SDS011;10470;42.670;23.354;2023-03-01T08:18:40;3.37;;;2.10;;
20621;SDS011;10470;42.670;23.354;2023-03-01T08:21:11;4.77;;;2.17;;
20621;SDS011;10470;42.670;23.354;2023-03-01T08:23:38;3.57;;;2.20;;
20621;SDS011;10470;42.670;23.354;2023-03-01T08:26:06;3.37;;;2.47;;
20621;SDS011;10470;42.670;23.354;2023-03-01T08:28:37;4.20;;;2.70;;
20621;SDS011;10470;42.670;23.354;2023-03-01T08:31:02;3.73;;;2.57;;
20621;SDS011;10470;42.670;23.354;2023-03-01T08:33:28;3.43;;;2.90;;
20621;SDS011;10470;42.670;23.354;2023-03-01T08:36:02;4.27;;;3.10;;
20621;SDS011;10470;42.670;23.354;2023-03-01T08:38:28;3.23;;;2.97;;
20621;SDS011;10470;42.670;23.354;2023-03-01T08:40:53;4.03;;;3.13;;
20621;SDS011;10470;42.670;23.354;2023-03-01T08:43:19;3.13;;;2.70;;
20621;SDS011;10470;42.670;23.354;2023-03-01T08:45:44;3.63;;;2.73;;
20621;SDS011;10470;42.670;23.354;2023-03-01T08:48:10;5.23;;;3.20;;
20621;SDS011;10470;42.670;23.354;2023-03-01T08:50:35;3.10;;;2.77;;
20621;SDS011;10470;42.670;23.354;2023-03-01T08:53:00;5.80;;;3.30;;
20621;SDS011;10470;42.670;23.354;2023-03-01T08:55:26;5.33;;;2.97;;
20621;SDS011;10470;42.670;23.354;2023-03-01T08:57:51;3.33;;;3.03;;
20621;SDS011;10470;42.670;23.354;2023-03-01T09:00:17;3.13;;;2.83;;
20621;SDS011;10470;42.670;23.354;2023-03-01T09:02:43;3.90;;;3.37;;
20621;SDS011;10470;42.670;23.354;2023-03-01T09:05:08;3.83;;;3.43;;
20621;SDS011;10470;42.670;23.354;2023-03-01T09:07:34;4.07;;;3.30;;
20621;SDS011;10470;42.670;23.354;2023-03-01T09:09:59;3.77;;;2.97;;
20621;SDS011;10470;42.670;23.354;2023-03-01T09:12:25;5.37;;;3.10;;
20621;SDS011;10470;42.670;23.354;2023-03-01T09:14:50;3.67;;;3.03;;
20621;SDS011;10470;42.670;23.354;2023-03-01T09:17:16;3.00;;;2.50;;
20621;SDS011;10470;42.670;23.354;2023-03-01T09:19:41;2.43;;;2.23;;
20621;SDS011;10470;42.670;23.354;2023-03-01T09:22:07;2.57;;;2.37;;
20621;SDS011;10470;42.670;23.354;2023-03-01T09:24:32;2.30;;;2.20;;
20621;SDS011;10470;42.670;23.354;2023-03-01T09:26:57;2.40;;;2.20;;
20621;SDS011;10470;42.670;23.354;2023-03-01T09:29:23;2.30;;;1.93;;
20621;SDS011;10470;42.670;23.354;2023-03-01T09:31:49;1.83;;;1.73;;
20621;SDS011;10470;42.670;23.354;2023-03-01T09:34:14;3.40;;;2.00;;
20621;SDS011;10470;42.670;23.354;2023-03-01T09:36:44;2.13;;;1.93;;
20621;SDS011;10470;42.670;23.354;2023-03-01T09:39:09;1.97;;;1.77;;
20621;SDS011;10470;42.670;23.354;2023-03-01T09:41:42;4.77;;;2.00;;
20621;SDS011;10470;42.670;23.354;2023-03-01T09:47:12;1.80;;;1.70;;
20621;SDS011;10470;42.670;23.354;2023-03-01T09:49:43;2.37;;;1.70;;
20621;SDS011;10470;42.670;23.354;2023-03-01T09:52:28;1.63;;;1.50;;
20621;SDS011;10470;42.670;23.354;2023-03-01T09:54:55;1.97;;;1.60;;
20621;SDS011;10470;42.670;23.354;2023-03-01T10:00:21;2.40;;;1.70;;
20621;SDS011;10470;42.670;23.354;2023-03-01T10:06:08;3.13;;;2.33;;
20621;SDS011;10470;42.670;23.354;2023-03-01T10:08:48;1.97;;;1.70;;
20621;SDS011;10470;42.670;23.354;2023-03-01T10:11:21;2.00;;;1.90;;
20621;SDS011;10470;42.670;23.354;2023-03-01T10:16:35;3.17;;;2.03;;
20621;SDS011;10470;42.670;23.354;2023-03-01T10:19:14;2.10;;;1.90;;
20621;SDS011;10470;42.670;23.354;2023-03-01T10:21:47;1.97;;;1.87;;
20621;SDS011;10470;42.670;23.354;2023-03-01T10:24:16;2.10;;;1.90;;
20621;SDS011;10470;42.670;23.354;2023-03-01T10:26:54;2.27;;;1.87;;
20621;SDS011;10470;42.670;23.354;2023-03-01T10:29:27;2.10;;;1.90;;
20621;SDS011;10470;42.670;23.354;2023-03-01T10:31:59;2.83;;;1.93;;
20621;SDS011;10470;42.670;23.354;2023-03-01T10:34:30;3.30;;;1.90;;
20621;SDS011;10470;42.670;23.354;2023-03-01T10:36:58;2.17;;;1.90;;
20621;SDS011;10470;42.670;23.354;2023-03-01T10:39:34;5.10;;;2.30;;
20621;SDS011;10470;42.670;23.354;2023-03-01T10:42:00;2.87;;;2.13;;
20621;SDS011;10470;42.670;23.354;2023-03-01T10:44:39;2.50;;;2.13;;
20621;SDS011;10470;42.670;23.354;2023-03-01T10:47:15;2.17;;;2.00;;
20621;SDS011;10470;42.670;23.354;2023-03-01T10:52:32;3.23;;;2.30;;
20621;SDS011;10470;42.670;23.354;2023-03-01T10:57:50;3.30;;;2.00;;
20621;SDS011;10470;42.670;23.354;2023-03-01T11:00:52;2.50;;;2.30;;
20621;SDS011;10470;42.670;23.354;2023-03-01T11:03:29;2.93;;;2.30;;
20621;SDS011;10470;42.670;23.354;2023-03-01T11:08:42;3.20;;;2.93;;
20621;SDS011;10470;42.670;23.354;2023-03-01T11:13:39;2.40;;;2.20;;
20621;SDS011;10470;42.670;23.354;2023-03-01T11:16:16;2.33;;;2.10;;
20621;SDS011;10470;42.670;23.354;2023-03-01T11:22:20;3.93;;;2.60;;
20621;SDS011;10470;42.670;23.354;2023-03-01T11:27:12;3.40;;;2.60;;
20621;SDS011;10470;42.670;23.354;2023-03-01T11:29:44;3.50;;;2.90;;
20621;SDS011;10470;42.670;23.354;2023-03-01T11:32:17;2.60;;;2.40;;
20621;SDS011;10470;42.670;23.354;2023-03-01T11:35:31;3.07;;;2.77;;
20621;SDS011;10470;42.670;23.354;2023-03-01T11:40:22;3.17;;;2.90;;
20621;SDS011;10470;42.670;23.354;2023-03-01T11:43:04;5.60;;;2.90;;
20621;SDS011;10470;42.670;23.354;2023-03-01T11:45:42;4.07;;;3.20;;
20621;SDS011;10470;42.670;23.354;2023-03-01T11:50:47;3.33;;;2.73;;
20621;SDS011;10470;42.670;23.354;2023-03-01T12:12:07;5.37;;;3.60;;
20621;SDS011;10470;42.670;23.354;2023-03-01T12:17:33;8.07;;;4.90;;
20621;SDS011;10470;42.670;23.354;2023-03-01T12:20:18;4.43;;;4.03;;
20621;SDS011;10470;42.670;23.354;2023-03-01T12:23:14;5.33;;;4.50;;
20621;SDS011;10470;42.670;23.354;2023-03-01T12:33:43;9.17;;;4.70;;
20621;SDS011;10470;42.670;23.354;2023-03-01T12:39:39;5.30;;;4.23;;
20621;SDS011;10470;42.670;23.354;2023-03-01T12:42:24;4.73;;;3.90;;
20621;SDS011;10470;42.670;23.354;2023-03-01T12:50:12;6.70;;;4.20;;
20621;SDS011;10470;42.670;23.354;2023-03-01T13:00:28;4.90;;;4.27;;
20621;SDS011;10470;42.670;23.354;2023-03-01T13:06:04;6.07;;;3.47;;
20621;SDS011;10470;42.670;23.354;2023-03-01T13:08:46;4.70;;;4.17;;
20621;SDS011;10470;42.670;23.354;2023-03-01T13:11:22;4.83;;;3.90;;
20621;SDS011;10470;42.670;23.354;2023-03-01T13:13:49;4.43;;;3.57;;
20621;SDS011;10470;42.670;23.354;2023-03-01T13:19:36;4.43;;;3.57;;
20621;SDS011;10470;42.670;23.354;2023-03-01T13:21:44;5.33;;;3.67;;
20621;SDS011;10470;42.670;23.354;2023-03-01T13:29:45;4.87;;;3.73;;
20621;SDS011;10470;42.670;23.354;2023-03-01T13:37:34;4.37;;;3.50;;
20621;SDS011;10470;42.670;23.354;2023-03-01T13:40:05;3.30;;;3.00;;
20621;SDS011;10470;42.670;23.354;2023-03-01T13:42:54;5.97;;;3.30;;
20621;SDS011;10470;42.670;23.354;2023-03-01T13:47:58;3.37;;;2.80;;
20621;SDS011;10470;42.670;23.354;2023-03-01T13:50:28;3.73;;;2.97;;
20621;SDS011;10470;42.670;23.354;2023-03-01T13:53:02;4.17;;;3.37;;
20621;SDS011;10470;42.670;23.354;2023-03-01T13:55:40;4.40;;;3.73;;
20621;SDS011;10470;42.670;23.354;2023-03-01T13:58:15;4.83;;;3.43;;
20621;SDS011;10470;42.670;23.354;2023-03-01T14:01:34;7.40;;;4.03;;
20621;SDS011;10470;42.670;23.354;2023-03-01T14:03:48;5.67;;;4.50;;
20621;SDS011;10470;42.670;23.354;2023-03-01T14:06:15;5.30;;;4.00;;
20621;SDS011;10470;42.670;23.354;2023-03-01T14:08:45;6.93;;;4.07;;
20621;SDS011;10470;42.670;23.354;2023-03-01T14:19:37;5.10;;;3.70;;
20621;SDS011;10470;42.670;23.354;2023-03-01T14:24:55;4.37;;;3.20;;
20621;SDS011;10470;42.670;23.354;2023-03-01T14:27:26;4.33;;;3.37;;
20621;SDS011;10470;42.670;23.354;2023-03-01T14:29:59;4.53;;;3.57;;
20621;SDS011;10470;42.670;23.354;2023-03-01T14:32:27;5.50;;;3.43;;
20621;SDS011;10470;42.670;23.354;2023-03-01T14:34:56;4.73;;;3.53;;
20621;SDS011;10470;42.670;23.354;2023-03-01T14:39:51;8.63;;;4.10;;
20621;SDS011;10470;42.670;23.354;2023-03-01T14:42:17;6.00;;;3.17;;
20621;SDS011;10470;42.670;23.354;2023-03-01T14:44:46;6.53;;;3.03;;
20621;SDS011;10470;42.670;23.354;2023-03-01T14:47:15;3.87;;;2.63;;
20621;SDS011;10470;42.670;23.354;2023-03-01T14:49:49;5.07;;;2.40;;
20621;SDS011;10470;42.670;23.354;2023-03-01T14:52:21;4.60;;;2.80;;
20621;SDS011;10470;42.670;23.354;2023-03-01T14:54:48;3.90;;;2.53;;
20621;SDS011;10470;42.670;23.354;2023-03-01T14:57:24;7.83;;;2.60;;
20621;SDS011;10470;42.670;23.354;2023-03-01T14:59:51;5.03;;;3.03;;
20621;SDS011;10470;42.670;23.354;2023-03-01T15:02:22;3.60;;;2.47;;
20621;SDS011;10470;42.670;23.354;2023-03-01T15:04:50;4.67;;;3.00;;
20621;SDS011;10470;42.670;23.354;2023-03-01T15:07:17;4.03;;;2.67;;
20621;SDS011;10470;42.670;23.354;2023-03-01T15:09:44;5.40;;;2.90;;
20621;SDS011;10470;42.670;23.354;2023-03-01T15:14:57;7.50;;;2.97;;
20621;SDS011;10470;42.670;23.354;2023-03-01T15:17:29;4.47;;;3.03;;
20621;SDS011;10470;42.670;23.354;2023-03-01T15:19:55;4.37;;;2.63;;
20621;SDS011;10470;42.670;23.354;2023-03-01T15:22:21;3.70;;;2.50;;
20621;SDS011;10470;42.670;23.354;2023-03-01T15:24:49;4.73;;;2.90;;
20621;SDS011;10470;42.670;23.354;2023-03-01T15:27:16;5.57;;;2.70;;
20621;SDS011;10470;42.670;23.354;2023-03-01T15:29:51;6.50;;;2.70;;
20621;SDS011;10470;42.670;23.354;2023-03-01T15:34:55;5.87;;;2.97;;
20621;SDS011;10470;42.670;23.354;2023-03-01T15:37:39;6.63;;;4.47;;
20621;SDS011;10470;42.670;23.354;2023-03-01T15:40:26;7.90;;;3.23;;
20621;SDS011;10470;42.670;23.354;2023-03-01T15:43:06;4.47;;;3.67;;
20621;SDS011;10470;42.670;23.354;2023-03-01T15:45:57;4.83;;;3.27;;
20621;SDS011;10470;42.670;23.354;2023-03-01T15:48:23;6.77;;;3.17;;
20621;SDS011;10470;42.670;23.354;2023-03-01T15:50:58;5.17;;;3.17;;
20621;SDS011;10470;42.670;23.354;2023-03-01T15:53:24;6.57;;;3.10;;
20621;SDS011;10470;42.670;23.354;2023-03-01T15:55:53;7.27;;;3.67;;
20621;SDS011;10470;42.670;23.354;2023-03-01T15:58:23;7.07;;;3.70;;
20621;SDS011;10470;42.670;23.354;2023-03-01T16:00:49;7.73;;;3.63;;
20621;SDS011;10470;42.670;23.354;2023-03-01T16:03:21;6.43;;;4.10;;
20621;SDS011;10470;42.670;23.354;2023-03-01T16:05:48;6.53;;;4.03;;
20621;SDS011;10470;42.670;23.354;2023-03-01T16:08:15;7.30;;;4.33;;
20621;SDS011;10470;42.670;23.354;2023-03-01T16:10:42;6.90;;;4.63;;
20621;SDS011;10470;42.670;23.354;2023-03-01T16:13:11;6.37;;;4.33;;
20621;SDS011;10470;42.670;23.354;2023-03-01T16:15:38;7.03;;;3.93;;
20621;SDS011;10470;42.670;23.354;2023-03-01T16:18:04;7.13;;;4.50;;
20621;SDS011;10470;42.670;23.354;2023-03-01T16:20:31;6.43;;;4.70;;
20621;SDS011;10470;42.670;23.354;2023-03-01T16:22:58;8.70;;;4.60;;
20621;SDS011;10470;42.670;23.354;2023-03-01T16:25:27;5.23;;;3.77;;
20621;SDS011;10470;42.670;23.354;2023-03-01T16:27:54;6.83;;;4.27;;
20621;SDS011;10470;42.670;23.354;2023-03-01T16:30:21;5.10;;;3.70;;
20621;SDS011;10470;42.670;23.354;2023-03-01T16:32:47;8.40;;;4.20;;
20621;SDS011;10470;42.670;23.354;2023-03-01T16:35:14;5.03;;;3.77;;
20621;SDS011;10470;42.670;23.354;2023-03-01T16:37:41;5.27;;;3.80;;
20621;SDS011;10470;42.670;23.354;2023-03-01T16:40:15;5.53;;;3.77;;
20621;SDS011;10470;42.670;23.354;2023-03-01T16:42:49;4.83;;;3.20;;
20621;SDS011;10470;42.670;23.354;2023-03-01T16:45:15;5.40;;;3.33;;
20621;SDS011;10470;42.670;23.354;2023-03-01T16:47:41;5.47;;;3.33;;
20621;SDS011;10470;42.670;23.354;2023-03-01T16:50:07;4.37;;;3.53;;
20621;SDS011;10470;42.670;23.354;2023-03-01T16:52:33;4.47;;;3.20;;
20621;SDS011;10470;42.670;23.354;2023-03-01T16:54:59;7.53;;;4.97;;
20621;SDS011;10470;42.670;23.354;2023-03-01T16:57:24;5.57;;;4.00;;
20621;SDS011;10470;42.670;23.354;2023-03-01T16:59:53;6.73;;;4.10;;